sensor_id;sensor_type;location;lat;lon;timestamp;temperature;humidity
9385;DHT22;4732;49.340;10.886;2023-07-02T03:01:08;16.70;99.90
9385;DHT22;4732;49.340;10.886;2023-07-02T03:03:38;16.60;99.90
9385;DHT22;4732;49.340;10.886;2023-07-02T03:06:05;16.60;99.90
9385;DHT22;4732;49.340;10.886;2023-07-02T03:08:31;16.60;99.90
9385;DHT22;4732;49.340;10.886;2023-07-02T03:10:57;16.60;99.90
9385;DHT22;4732;49.340;10.886;2023-07-02T03:13:22;18.00;99.90
9385;DHT22;4732;49.340;10.886;2023-07-02T03:15:47;19.20;99.90
9385;DHT22;4732;49.340;10.886;2023-07-02T03:18:13;16.30;99.90
9385;DHT22;4732;49.340;10.886;2023-07-02T03:20:39;18.70;99.90
9385;DHT22;4732;49.340;10.886;2023-07-02T03:23:04;16.30;99.90
9385;DHT22;4732;49.340;10.886;2023-07-02T03:25:30;16.30;99.90
9385;DHT22;4732;49.340;10.886;2023-07-02T03:27:56;17.30;99.90
9385;DHT22;4732;49.340;10.886;2023-07-02T03:30:21;16.30;99.90
9385;DHT22;4732;49.340;10.886;2023-07-02T03:32:47;16.30;99.90
9385;DHT22;4732;49.340;10.886;2023-07-02T03:35:12;16.30;99.90
9385;DHT22;4732;49.340;10.886;2023-07-02T03:37:38;16.30;99.90
9385;DHT22;4732;49.340;10.886;2023-07-02T03:40:04;16.40;99.90
9385;DHT22;4732;49.340;10.886;2023-07-02T03:42:30;16.40;99.90
9385;DHT22;4732;49.340;10.886;2023-07-02T03:44:56;16.40;99.90
9385;DHT22;4732;49.340;10.886;2023-07-02T03:47:21;16.40;99.90
9385;DHT22;4732;49.340;10.886;2023-07-02T03:49:47;16.40;99.90
9385;DHT22;4732;49.340;10.886;2023-07-02T03:52:13;16.40;99.90
9385;DHT22;4732;49.340;10.886;2023-07-02T03:54:38;16.40;99.90
9385;DHT22;4732;49.340;10.886;2023-07-02T03:57:04;16.40;99.90
9385;DHT22;4732;49.340;10.886;2023-07-02T03:59:30;16.40;99.90
9385;DHT22;4732;49.340;10.886;2023-07-02T04:01:55;16.40;99.90
9385;DHT22;4732;49.340;10.886;2023-07-02T04:04:21;16.40;99.90
9385;DHT22;4732;49.340;10.886;2023-07-02T04:06:46;16.40;99.90
9385;DHT22;4732;49.340;10.886;2023-07-02T04:09:12;16.50;99.90
9385;DHT22;4732;49.340;10.886;2023-07-02T04:11:38;16.50;99.90
9385;DHT22;4732;49.340;10.886;2023-07-02T04:14:03;16.60;99.90
9385;DHT22;4732;49.340;10.886;2023-07-02T04:16:29;18.10;99.90
9385;DHT22;4732;49.340;10.886;2023-07-02T04:18:54;16.70;99.90
9385;DHT22;4732;49.340;10.886;2023-07-02T04:21:20;16.70;99.90
9385;DHT22;4732;49.340;10.886;2023-07-02T04:23:45;16.60;99.90
9385;DHT22;4732;49.340;10.886;2023-07-02T04:26:12;16.60;99.90
9385;DHT22;4732;49.340;10.886;2023-07-02T04:28:37;16.70;99.90
9385;DHT22;4732;49.340;10.886;2023-07-02T04:31:03;16.70;99.90
9385;DHT22;4732;49.340;10.886;2023-07-02T04:33:28;16.70;99.90
9385;DHT22;4732;49.340;10.886;2023-07-02T04:36:02;16.80;99.90
9385;DHT22;4732;49.340;10.886;2023-07-02T04:38:28;17.00;99.90
9385;DHT22;4732;49.340;10.886;2023-07-02T04:40:54;17.00;99.90
9385;DHT22;4732;49.340;10.886;2023-07-02T04:43:22;17.00;99.90
9385;DHT22;4732;49.340;10.886;2023-07-02T04:45:49;16.90;99.90
9385;DHT22;4732;49.340;10.886;2023-07-02T04:48:14;18.20;99.90
9385;DHT22;4732;49.340;10.886;2023-07-02T04:50:41;17.00;99.90
9385;DHT22;4732;49.340;10.886;2023-07-02T04:53:07;17.00;99.90
9385;DHT22;4732;49.340;10.886;2023-07-02T04:55:32;17.10;99.90
9385;DHT22;4732;49.340;10.886;2023-07-02T04:57:58;17.00;99.90
9385;DHT22;4732;49.340;10.886;2023-07-02T05:00:23;16.90;99.90
9385;DHT22;4732;49.340;10.886;2023-07-02T05:02:49;16.90;99.90
9385;DHT22;4732;49.340;10.886;2023-07-02T05:05:15;16.90;99.90
9385;DHT22;4732;49.340;10.886;2023-07-02T05:07:41;16.90;99.90
9385;DHT22;4732;49.340;10.886;2023-07-02T05:10:06;17.30;99.90
9385;DHT22;4732;49.340;10.886;2023-07-02T05:12:32;16.90;99.90
9385;DHT22;4732;49.340;10.886;2023-07-02T05:14:57;16.90;99.90
9385;DHT22;4732;49.340;10.886;2023-07-02T05:17:23;16.90;99.90
9385;DHT22;4732;49.340;10.886;2023-07-02T05:19:49;16.90;99.90
9385;DHT22;4732;49.340;10.886;2023-07-02T05:22:14;17.00;99.90
9385;DHT22;4732;49.340;10.886;2023-07-02T05:24:40;18.70;99.90
9385;DHT22;4732;49.340;10.886;2023-07-02T05:27:06;17.10;99.90
9385;DHT22;4732;49.340;10.886;2023-07-02T05:29:31;17.00;99.90
9385;DHT22;4732;49.340;10.886;2023-07-02T05:31:57;17.00;99.90
9385;DHT22;4732;49.340;10.886;2023-07-02T05:34:22;20.90;99.90
9385;DHT22;4732;49.340;10.886;2023-07-02T05:36:48;17.00;99.90
9385;DHT22;4732;49.340;10.886;2023-07-02T05:39:14;17.00;99.90
9385;DHT22;4732;49.340;10.886;2023-07-02T05:41:39;17.10;99.90
9385;DHT22;4732;49.340;10.886;2023-07-02T05:44:05;17.40;99.90
9385;DHT22;4732;49.340;10.886;2023-07-02T05:46:30;18.30;99.90
9385;DHT22;4732;49.340;10.886;2023-07-02T05:48:56;17.20;99.90
9385;DHT22;4732;49.340;10.886;2023-07-02T05:51:23;17.10;99.90
9385;DHT22;4732;49.340;10.886;2023-07-02T05:53:49;17.10;99.90
9385;DHT22;4732;49.340;10.886;2023-07-02T05:56:15;17.20;99.90
9385;DHT22;4732;49.340;10.886;2023-07-02T05:58:41;17.20;99.90
9385;DHT22;4732;49.340;10.886;2023-07-02T06:01:06;19.60;99.90
9385;DHT22;4732;49.340;10.886;2023-07-02T06:03:32;17.20;99.90
9385;DHT22;4732;49.340;10.886;2023-07-02T06:05:58;19.00;99.90
9385;DHT22;4732;49.340;10.886;2023-07-02T06:08:24;17.40;99.90
9385;DHT22;4732;49.340;10.886;2023-07-02T06:10:50;18.00;99.90
9385;DHT22;4732;49.340;10.886;2023-07-02T06:13:16;17.60;99.90
9385;DHT22;4732;49.340;10.886;2023-07-02T06:15:41;17.60;99.90
9385;DHT22;4732;49.340;10.886;2023-07-02T06:18:07;17.70;99.90
9385;DHT22;4732;49.340;10.886;2023-07-02T06:20:33;17.50;99.90
9385;DHT22;4732;49.340;10.886;2023-07-02T06:22:58;17.70;99.90
9385;DHT22;4732;49.340;10.886;2023-07-02T06:25:24;22.30;99.90
9385;DHT22;4732;49.340;10.886;2023-07-02T06:27:49;17.70;99.90
9385;DHT22;4732;49.340;10.886;2023-07-02T06:30:15;17.80;99.90
9385;DHT22;4732;49.340;10.886;2023-07-02T06:32:41;17.80;99.90
9385;DHT22;4732;49.340;10.886;2023-07-02T06:35:07;17.90;99.90
9385;DHT22;4732;49.340;10.886;2023-07-02T06:37:33;18.00;99.90
9385;DHT22;4732;49.340;10.886;2023-07-02T06:39:58;18.00;99.90
9385;DHT22;4732;49.340;10.886;2023-07-02T06:42:25;18.10;99.90
9385;DHT22;4732;49.340;10.886;2023-07-02T06:44:51;18.20;99.90
9385;DHT22;4732;49.340;10.886;2023-07-02T06:47:16;18.30;99.90
9385;DHT22;4732;49.340;10.886;2023-07-02T06:49:42;18.40;99.90
9385;DHT22;4732;49.340;10.886;2023-07-02T06:52:08;18.50;99.90
9385;DHT22;4732;49.340;10.886;2023-07-02T06:54:33;18.50;99.90
9385;DHT22;4732;49.340;10.886;2023-07-02T06:56:59;18.40;99.90
9385;DHT22;4732;49.340;10.886;2023-07-02T06:59:25;18.40;99.90
9385;DHT22;4732;49.340;10.886;2023-07-02T07:01:50;18.40;99.90
9385;DHT22;4732;49.340;10.886;2023-07-02T07:04:16;18.40;99.90
9385;DHT22;4732;49.340;10.886;2023-07-02T07:06:42;18.40;99.90
9385;DHT22;4732;49.340;10.886;2023-07-02T07:09:08;18.60;99.90
9385;DHT22;4732;49.340;10.886;2023-07-02T07:11:34;18.70;99.90
9385;DHT22;4732;49.340;10.886;2023-07-02T07:13:59;18.70;99.90
9385;DHT22;4732;49.340;10.886;2023-07-02T07:16:25;18.80;99.90
9385;DHT22;4732;49.340;10.886;2023-07-02T07:18:51;19.10;99.90
9385;DHT22;4732;49.340;10.886;2023-07-02T07:21:16;19.20;99.90
9385;DHT22;4732;49.340;10.886;2023-07-02T07:23:42;19.10;99.90
9385;DHT22;4732;49.340;10.886;2023-07-02T07:26:10;19.10;99.90
9385;DHT22;4732;49.340;10.886;2023-07-02T07:28:36;19.10;99.90
9385;DHT22;4732;49.340;10.886;2023-07-02T07:31:02;18.90;99.90
9385;DHT22;4732;49.340;10.886;2023-07-02T07:33:27;19.10;99.90
9385;DHT22;4732;49.340;10.886;2023-07-02T07:35:53;19.00;99.90
9385;DHT22;4732;49.340;10.886;2023-07-02T07:38:19;19.10;99.90
9385;DHT22;4732;49.340;10.886;2023-07-02T07:40:44;19.00;99.90
9385;DHT22;4732;49.340;10.886;2023-07-02T07:43:10;19.00;99.90
9385;DHT22;4732;49.340;10.886;2023-07-02T07:45:36;19.20;99.90
9385;DHT22;4732;49.340;10.886;2023-07-02T07:48:03;19.40;99.90
9385;DHT22;4732;49.340;10.886;2023-07-02T07:50:29;19.40;99.90
9385;DHT22;4732;49.340;10.886;2023-07-02T07:52:54;19.30;99.90
9385;DHT22;4732;49.340;10.886;2023-07-02T07:55:20;19.20;99.90
9385;DHT22;4732;49.340;10.886;2023-07-02T07:57:45;19.20;99.90
9385;DHT22;4732;49.340;10.886;2023-07-02T08:00:11;19.40;99.90
9385;DHT22;4732;49.340;10.886;2023-07-02T08:02:37;19.50;99.90
9385;DHT22;4732;49.340;10.886;2023-07-02T08:05:04;19.60;99.90
9385;DHT22;4732;49.340;10.886;2023-07-02T08:07:35;19.90;99.90
9385;DHT22;4732;49.340;10.886;2023-07-02T08:10:01;19.80;99.90
9385;DHT22;4732;49.340;10.886;2023-07-02T08:12:28;20.00;99.90
9385;DHT22;4732;49.340;10.886;2023-07-02T08:14:55;20.20;99.90
9385;DHT22;4732;49.340;10.886;2023-07-02T08:17:21;20.30;99.90
9385;DHT22;4732;49.340;10.886;2023-07-02T08:19:46;20.40;99.90
9385;DHT22;4732;49.340;10.886;2023-07-02T08:22:12;20.70;99.90
9385;DHT22;4732;49.340;10.886;2023-07-02T08:24:38;22.60;99.90
9385;DHT22;4732;49.340;10.886;2023-07-02T08:27:03;20.60;99.90
9385;DHT22;4732;49.340;10.886;2023-07-02T08:29:30;20.60;99.90
9385;DHT22;4732;49.340;10.886;2023-07-02T08:31:56;21.60;99.90
9385;DHT22;4732;49.340;10.886;2023-07-02T08:34:21;20.60;99.90
9385;DHT22;4732;49.340;10.886;2023-07-02T08:36:47;22.00;99.90
9385;DHT22;4732;49.340;10.886;2023-07-02T08:39:12;20.30;99.90
9385;DHT22;4732;49.340;10.886;2023-07-02T08:41:43;20.70;99.90
9385;DHT22;4732;49.340;10.886;2023-07-02T08:44:11;21.00;99.90
9385;DHT22;4732;49.340;10.886;2023-07-02T08:46:41;23.70;99.90
9385;DHT22;4732;49.340;10.886;2023-07-02T08:49:08;20.90;99.90
9385;DHT22;4732;49.340;10.886;2023-07-02T08:51:34;20.70;99.90
9385;DHT22;4732;49.340;10.886;2023-07-02T08:54:03;20.90;99.90
9385;DHT22;4732;49.340;10.886;2023-07-02T08:56:29;21.10;99.90
9385;DHT22;4732;49.340;10.886;2023-07-02T08:58:55;22.50;99.90
9385;DHT22;4732;49.340;10.886;2023-07-02T09:01:21;20.70;99.90
9385;DHT22;4732;49.340;10.886;2023-07-02T09:03:47;20.90;99.90
9385;DHT22;4732;49.340;10.886;2023-07-02T09:06:13;21.30;99.90
9385;DHT22;4732;49.340;10.886;2023-07-02T09:08:38;21.20;99.90
9385;DHT22;4732;49.340;10.886;2023-07-02T09:11:14;21.20;99.90
9385;DHT22;4732;49.340;10.886;2023-07-02T09:13:49;21.20;99.90
9385;DHT22;4732;49.340;10.886;2023-07-02T09:16:41;21.60;99.90
9385;DHT22;4732;49.340;10.886;2023-07-02T09:19:08;22.10;99.90
9385;DHT22;4732;49.340;10.886;2023-07-02T09:21:44;22.10;99.90
9385;DHT22;4732;49.340;10.886;2023-07-02T09:24:21;22.00;99.90
9385;DHT22;4732;49.340;10.886;2023-07-02T09:26:59;22.00;99.90
9385;DHT22;4732;49.340;10.886;2023-07-02T09:29:25;21.80;99.90
9385;DHT22;4732;49.340;10.886;2023-07-02T09:31:56;21.60;99.90
9385;DHT22;4732;49.340;10.886;2023-07-02T09:34:36;21.50;99.90
9385;DHT22;4732;49.340;10.886;2023-07-02T09:37:02;21.40;99.90
9385;DHT22;4732;49.340;10.886;2023-07-02T09:39:35;21.40;99.90
9385;DHT22;4732;49.340;10.886;2023-07-02T09:42:05;21.30;99.90
9385;DHT22;4732;49.340;10.886;2023-07-02T09:44:32;21.50;99.90
9385;DHT22;4732;49.340;10.886;2023-07-02T09:47:08;21.90;99.90
9385;DHT22;4732;49.340;10.886;2023-07-02T09:49:39;21.70;99.90
9385;DHT22;4732;49.340;10.886;2023-07-02T09:52:10;21.70;99.90
9385;DHT22;4732;49.340;10.886;2023-07-02T09:54:37;21.80;99.90
9385;DHT22;4732;49.340;10.886;2023-07-02T09:57:03;22.10;99.90
9385;DHT22;4732;49.340;10.886;2023-07-02T09:59:32;21.90;98.10
9385;DHT22;4732;49.340;10.886;2023-07-02T10:01:58;21.80;99.50
9385;DHT22;4732;49.340;10.886;2023-07-02T10:04:23;22.20;99.90
9385;DHT22;4732;49.340;10.886;2023-07-02T10:06:51;22.40;99.90
9385;DHT22;4732;49.340;10.886;2023-07-02T10:09:21;22.40;98.60
9385;DHT22;4732;49.340;10.886;2023-07-02T10:11:47;22.20;97.40
9385;DHT22;4732;49.340;10.886;2023-07-02T10:14:13;22.50;98.50
9385;DHT22;4732;49.340;10.886;2023-07-02T10:16:52;23.00;97.90
9385;DHT22;4732;49.340;10.886;2023-07-02T10:19:19;23.30;96.60
9385;DHT22;4732;49.340;10.886;2023-07-02T10:21:44;23.10;97.10
9385;DHT22;4732;49.340;10.886;2023-07-02T10:24:17;22.60;96.80
9385;DHT22;4732;49.340;10.886;2023-07-02T10:27:03;22.50;96.60
9385;DHT22;4732;49.340;10.886;2023-07-02T10:29:29;22.60;97.30
9385;DHT22;4732;49.340;10.886;2023-07-02T10:31:56;22.90;96.20
9385;DHT22;4732;49.340;10.886;2023-07-02T10:34:35;23.10;97.00
9385;DHT22;4732;49.340;10.886;2023-07-02T10:37:04;23.00;97.00
9385;DHT22;4732;49.340;10.886;2023-07-02T10:39:31;23.50;97.40
9385;DHT22;4732;49.340;10.886;2023-07-02T10:42:09;23.60;95.10
9385;DHT22;4732;49.340;10.886;2023-07-02T10:44:50;23.60;94.90
9385;DHT22;4732;49.340;10.886;2023-07-02T10:47:15;23.90;97.10
9385;DHT22;4732;49.340;10.886;2023-07-02T10:49:41;24.40;94.60
9385;DHT22;4732;49.340;10.886;2023-07-02T10:52:07;24.60;94.50
9385;DHT22;4732;49.340;10.886;2023-07-02T10:54:51;24.30;95.00
9385;DHT22;4732;49.340;10.886;2023-07-02T10:57:18;24.00;95.70
9385;DHT22;4732;49.340;10.886;2023-07-02T10:59:48;24.30;96.10
9385;DHT22;4732;49.340;10.886;2023-07-02T11:02:14;24.60;96.60
9385;DHT22;4732;49.340;10.886;2023-07-02T11:04:40;24.60;93.30
9385;DHT22;4732;49.340;10.886;2023-07-02T11:07:05;24.70;93.90
9385;DHT22;4732;49.340;10.886;2023-07-02T11:09:31;24.80;94.50
9385;DHT22;4732;49.340;10.886;2023-07-02T11:11:59;25.20;94.60
9385;DHT22;4732;49.340;10.886;2023-07-02T11:14:32;25.60;93.40
9385;DHT22;4732;49.340;10.886;2023-07-02T11:16:59;24.80;94.00
9385;DHT22;4732;49.340;10.886;2023-07-02T11:19:25;24.80;93.50
9385;DHT22;4732;49.340;10.886;2023-07-02T11:21:52;24.80;93.20
9385;DHT22;4732;49.340;10.886;2023-07-02T11:24:33;25.10;93.30
9385;DHT22;4732;49.340;10.886;2023-07-02T11:27:00;25.00;92.10
9385;DHT22;4732;49.340;10.886;2023-07-02T11:29:27;24.30;93.30
9385;DHT22;4732;49.340;10.886;2023-07-02T11:31:53;25.10;95.20
9385;DHT22;4732;49.340;10.886;2023-07-02T11:34:21;25.60;93.70
9385;DHT22;4732;49.340;10.886;2023-07-02T11:36:47;25.30;93.20
9385;DHT22;4732;49.340;10.886;2023-07-02T11:39:13;24.90;93.80
9385;DHT22;4732;49.340;10.886;2023-07-02T11:41:43;24.90;93.90
9385;DHT22;4732;49.340;10.886;2023-07-02T11:44:09;25.30;94.50
9385;DHT22;4732;49.340;10.886;2023-07-02T11:46:35;25.60;94.00
9385;DHT22;4732;49.340;10.886;2023-07-02T11:49:01;25.90;92.60
9385;DHT22;4732;49.340;10.886;2023-07-02T11:51:27;26.40;92.80
9385;DHT22;4732;49.340;10.886;2023-07-02T11:53:53;26.60;92.50
9385;DHT22;4732;49.340;10.886;2023-07-02T11:56:19;26.80;92.10
9385;DHT22;4732;49.340;10.886;2023-07-02T11:58:44;26.20;90.90
9385;DHT22;4732;49.340;10.886;2023-07-02T12:01:10;25.50;90.80
9385;DHT22;4732;49.340;10.886;2023-07-02T12:03:35;24.70;91.30
9385;DHT22;4732;49.340;10.886;2023-07-02T12:06:01;24.40;91.30
9385;DHT22;4732;49.340;10.886;2023-07-02T12:08:26;24.30;91.60
9385;DHT22;4732;49.340;10.886;2023-07-02T12:10:52;24.60;91.70
9385;DHT22;4732;49.340;10.886;2023-07-02T12:13:18;25.10;92.80
9385;DHT22;4732;49.340;10.886;2023-07-02T12:15:43;25.20;92.30
9385;DHT22;4732;49.340;10.886;2023-07-02T12:18:09;25.70;93.00
9385;DHT22;4732;49.340;10.886;2023-07-02T12:20:35;25.70;91.70
9385;DHT22;4732;49.340;10.886;2023-07-02T12:23:00;26.00;90.60
9385;DHT22;4732;49.340;10.886;2023-07-02T12:25:26;26.30;90.70
9385;DHT22;4732;49.340;10.886;2023-07-02T12:27:52;26.50;90.10
9385;DHT22;4732;49.340;10.886;2023-07-02T12:30:18;26.60;89.70
9385;DHT22;4732;49.340;10.886;2023-07-02T12:32:44;26.20;86.80
9385;DHT22;4732;49.340;10.886;2023-07-02T12:35:10;26.10;90.00
9385;DHT22;4732;49.340;10.886;2023-07-02T12:37:46;26.30;90.90
9385;DHT22;4732;49.340;10.886;2023-07-02T12:40:12;26.10;89.70
9385;DHT22;4732;49.340;10.886;2023-07-02T12:42:39;26.00;91.10
9385;DHT22;4732;49.340;10.886;2023-07-02T12:45:05;25.70;90.90
9385;DHT22;4732;49.340;10.886;2023-07-02T12:47:31;26.10;91.60
9385;DHT22;4732;49.340;10.886;2023-07-02T12:49:57;26.70;91.00
9385;DHT22;4732;49.340;10.886;2023-07-02T12:52:22;27.10;89.50
9385;DHT22;4732;49.340;10.886;2023-07-02T12:54:48;27.10;87.20
9385;DHT22;4732;49.340;10.886;2023-07-02T12:57:13;27.20;87.00
9385;DHT22;4732;49.340;10.886;2023-07-02T12:59:39;27.20;86.50
9385;DHT22;4732;49.340;10.886;2023-07-02T13:02:05;27.00;87.60
9385;DHT22;4732;49.340;10.886;2023-07-02T13:04:31;27.00;89.60
9385;DHT22;4732;49.340;10.886;2023-07-02T13:06:56;27.20;87.10
9385;DHT22;4732;49.340;10.886;2023-07-02T13:09:22;27.50;86.30
9385;DHT22;4732;49.340;10.886;2023-07-02T13:11:47;26.90;87.10
9385;DHT22;4732;49.340;10.886;2023-07-02T13:14:13;26.40;90.00
9385;DHT22;4732;49.340;10.886;2023-07-02T13:16:38;26.30;90.30
9385;DHT22;4732;49.340;10.886;2023-07-02T13:19:04;26.30;91.40
9385;DHT22;4732;49.340;10.886;2023-07-02T13:21:30;25.60;90.00
9385;DHT22;4732;49.340;10.886;2023-07-02T13:23:55;25.60;90.00
9385;DHT22;4732;49.340;10.886;2023-07-02T13:26:21;25.40;91.10
9385;DHT22;4732;49.340;10.886;2023-07-02T13:28:46;25.80;90.90
9385;DHT22;4732;49.340;10.886;2023-07-02T13:31:14;25.90;90.80
9385;DHT22;4732;49.340;10.886;2023-07-02T13:33:39;25.80;87.80
9385;DHT22;4732;49.340;10.886;2023-07-02T13:36:05;24.90;88.70
9385;DHT22;4732;49.340;10.886;2023-07-02T13:38:31;25.00;90.40
9385;DHT22;4732;49.340;10.886;2023-07-02T13:40:57;24.80;90.00
9385;DHT22;4732;49.340;10.886;2023-07-02T13:43:22;25.20;91.00
9385;DHT22;4732;49.340;10.886;2023-07-02T13:45:48;25.20;90.20
9385;DHT22;4732;49.340;10.886;2023-07-02T13:48:13;25.20;90.80
9385;DHT22;4732;49.340;10.886;2023-07-02T13:50:39;25.40;91.00
9385;DHT22;4732;49.340;10.886;2023-07-02T13:53:05;25.80;90.10
9385;DHT22;4732;49.340;10.886;2023-07-02T13:55:30;25.70;89.40
9385;DHT22;4732;49.340;10.886;2023-07-02T13:57:56;26.10;90.40
9385;DHT22;4732;49.340;10.886;2023-07-02T14:00:23;26.70;90.20
9385;DHT22;4732;49.340;10.886;2023-07-02T14:02:49;26.80;86.40
9385;DHT22;4732;49.340;10.886;2023-07-02T14:05:15;26.50;85.90
9385;DHT22;4732;49.340;10.886;2023-07-02T14:07:40;26.10;84.10
9385;DHT22;4732;49.340;10.886;2023-07-02T14:10:06;25.70;87.90
9385;DHT22;4732;49.340;10.886;2023-07-02T14:12:32;25.70;88.00
9385;DHT22;4732;49.340;10.886;2023-07-02T14:14:57;25.60;88.90
9385;DHT22;4732;49.340;10.886;2023-07-02T14:17:23;25.50;88.50
9385;DHT22;4732;49.340;10.886;2023-07-02T14:19:48;25.60;88.00
9385;DHT22;4732;49.340;10.886;2023-07-02T14:22:14;25.70;87.40
9385;DHT22;4732;49.340;10.886;2023-07-02T14:24:39;25.60;87.00
9385;DHT22;4732;49.340;10.886;2023-07-02T14:27:05;25.80;89.10
9385;DHT22;4732;49.340;10.886;2023-07-02T14:29:31;25.90;87.40
9385;DHT22;4732;49.340;10.886;2023-07-02T14:31:56;26.10;86.80
9385;DHT22;4732;49.340;10.886;2023-07-02T14:34:22;26.00;88.50
9385;DHT22;4732;49.340;10.886;2023-07-02T14:36:48;26.20;87.10
9385;DHT22;4732;49.340;10.886;2023-07-02T14:39:13;26.30;87.40
9385;DHT22;4732;49.340;10.886;2023-07-02T14:41:39;26.20;87.00
9385;DHT22;4732;49.340;10.886;2023-07-02T14:44:04;25.60;86.20
9385;DHT22;4732;49.340;10.886;2023-07-02T14:46:31;25.40;87.60
9385;DHT22;4732;49.340;10.886;2023-07-02T14:48:56;26.00;88.40
9385;DHT22;4732;49.340;10.886;2023-07-02T14:51:22;26.70;87.40
9385;DHT22;4732;49.340;10.886;2023-07-02T14:53:47;27.20;86.70
9385;DHT22;4732;49.340;10.886;2023-07-02T14:56:13;27.20;84.30
9385;DHT22;4732;49.340;10.886;2023-07-02T14:58:39;26.10;83.60
9385;DHT22;4732;49.340;10.886;2023-07-02T15:01:04;26.10;84.70
9385;DHT22;4732;49.340;10.886;2023-07-02T15:03:30;25.80;87.10
9385;DHT22;4732;49.340;10.886;2023-07-02T15:06:06;25.80;87.40
9385;DHT22;4732;49.340;10.886;2023-07-02T15:08:32;26.00;87.10
9385;DHT22;4732;49.340;10.886;2023-07-02T15:10:59;25.80;86.00
9385;DHT22;4732;49.340;10.886;2023-07-02T15:13:25;26.10;87.50
9385;DHT22;4732;49.340;10.886;2023-07-02T15:15:50;26.20;87.40
9385;DHT22;4732;49.340;10.886;2023-07-02T15:18:16;25.80;85.60
9385;DHT22;4732;49.340;10.886;2023-07-02T15:20:45;25.70;85.10
9385;DHT22;4732;49.340;10.886;2023-07-02T15:23:12;25.40;83.80
9385;DHT22;4732;49.340;10.886;2023-07-02T15:25:37;25.50;87.90
9385;DHT22;4732;49.340;10.886;2023-07-02T15:28:04;25.70;87.80
9385;DHT22;4732;49.340;10.886;2023-07-02T15:30:30;26.10;88.80
9385;DHT22;4732;49.340;10.886;2023-07-02T15:32:55;26.50;86.20
9385;DHT22;4732;49.340;10.886;2023-07-02T15:35:21;26.70;84.30
9385;DHT22;4732;49.340;10.886;2023-07-02T15:37:47;26.00;83.50
9385;DHT22;4732;49.340;10.886;2023-07-02T15:40:13;25.70;86.40
9385;DHT22;4732;49.340;10.886;2023-07-02T15:42:39;25.10;86.20
9385;DHT22;4732;49.340;10.886;2023-07-02T15:45:05;25.30;87.60
9385;DHT22;4732;49.340;10.886;2023-07-02T15:47:32;25.60;89.20
9385;DHT22;4732;49.340;10.886;2023-07-02T15:49:57;26.30;85.90
9385;DHT22;4732;49.340;10.886;2023-07-02T15:52:23;26.50;84.80
9385;DHT22;4732;49.340;10.886;2023-07-02T15:54:48;26.30;87.00
9385;DHT22;4732;49.340;10.886;2023-07-02T15:57:14;26.00;86.40
9385;DHT22;4732;49.340;10.886;2023-07-02T15:59:40;26.00;86.90
9385;DHT22;4732;49.340;10.886;2023-07-02T16:02:06;26.30;85.40
9385;DHT22;4732;49.340;10.886;2023-07-02T16:04:32;26.50;86.20
9385;DHT22;4732;49.340;10.886;2023-07-02T16:06:57;26.60;86.10
9385;DHT22;4732;49.340;10.886;2023-07-02T16:09:23;26.40;85.80
9385;DHT22;4732;49.340;10.886;2023-07-02T16:11:48;26.40;86.70
9385;DHT22;4732;49.340;10.886;2023-07-02T16:14:16;25.80;85.20
9385;DHT22;4732;49.340;10.886;2023-07-02T16:16:47;25.90;87.40
9385;DHT22;4732;49.340;10.886;2023-07-02T16:19:19;26.00;87.00
9385;DHT22;4732;49.340;10.886;2023-07-02T16:21:45;25.80;85.20
9385;DHT22;4732;49.340;10.886;2023-07-02T16:26:46;25.70;86.80
9385;DHT22;4732;49.340;10.886;2023-07-02T16:29:12;26.00;86.90
9385;DHT22;4732;49.340;10.886;2023-07-02T16:31:40;26.10;82.90
9385;DHT22;4732;49.340;10.886;2023-07-02T16:34:08;25.90;85.00
9385;DHT22;4732;49.340;10.886;2023-07-02T16:36:35;26.10;86.40
9385;DHT22;4732;49.340;10.886;2023-07-02T16:39:01;26.20;84.70
9385;DHT22;4732;49.340;10.886;2023-07-02T16:41:26;26.20;83.50
9385;DHT22;4732;49.340;10.886;2023-07-02T16:43:54;25.90;84.10
9385;DHT22;4732;49.340;10.886;2023-07-02T16:46:20;25.80;83.40
9385;DHT22;4732;49.340;10.886;2023-07-02T16:48:46;25.80;83.30
9385;DHT22;4732;49.340;10.886;2023-07-02T16:51:11;25.50;83.00
9385;DHT22;4732;49.340;10.886;2023-07-02T16:53:37;25.60;83.80
9385;DHT22;4732;49.340;10.886;2023-07-02T16:56:04;25.50;84.70
9385;DHT22;4732;49.340;10.886;2023-07-02T16:58:31;25.30;83.30
9385;DHT22;4732;49.340;10.886;2023-07-02T17:01:06;25.20;86.20
9385;DHT22;4732;49.340;10.886;2023-07-02T17:03:32;25.20;84.70
9385;DHT22;4732;49.340;10.886;2023-07-02T17:06:05;25.20;86.20
9385;DHT22;4732;49.340;10.886;2023-07-02T17:08:37;25.10;85.20
9385;DHT22;4732;49.340;10.886;2023-07-02T17:11:04;24.90;87.50
9385;DHT22;4732;49.340;10.886;2023-07-02T17:13:30;24.60;86.10
9385;DHT22;4732;49.340;10.886;2023-07-02T17:15:56;24.60;88.40
9385;DHT22;4732;49.340;10.886;2023-07-02T17:18:21;24.40;87.70
9385;DHT22;4732;49.340;10.886;2023-07-02T17:20:51;24.40;89.30
9385;DHT22;4732;49.340;10.886;2023-07-02T17:23:17;24.20;86.80
9385;DHT22;4732;49.340;10.886;2023-07-02T17:25:42;24.10;87.90
9385;DHT22;4732;49.340;10.886;2023-07-02T17:28:08;23.90;87.90
9385;DHT22;4732;49.340;10.886;2023-07-02T17:30:34;23.90;87.90
9385;DHT22;4732;49.340;10.886;2023-07-02T17:33:02;23.80;89.40
9385;DHT22;4732;49.340;10.886;2023-07-02T17:35:27;23.80;90.00
9385;DHT22;4732;49.340;10.886;2023-07-02T17:37:53;23.70;88.60
9385;DHT22;4732;49.340;10.886;2023-07-02T17:40:18;23.60;88.60
9385;DHT22;4732;49.340;10.886;2023-07-02T17:42:44;23.60;89.00
9385;DHT22;4732;49.340;10.886;2023-07-02T17:45:10;23.40;90.00
9385;DHT22;4732;49.340;10.886;2023-07-02T17:47:36;23.50;90.30
9385;DHT22;4732;49.340;10.886;2023-07-02T17:50:03;23.50;89.80
9385;DHT22;4732;49.340;10.886;2023-07-02T17:52:28;23.50;90.20
9385;DHT22;4732;49.340;10.886;2023-07-02T17:54:54;23.50;90.10
9385;DHT22;4732;49.340;10.886;2023-07-02T17:57:21;23.40;90.60
9385;DHT22;4732;49.340;10.886;2023-07-02T17:59:47;23.40;90.60
9385;DHT22;4732;49.340;10.886;2023-07-02T18:02:15;23.20;90.50
9385;DHT22;4732;49.340;10.886;2023-07-02T18:04:41;23.20;91.20
9385;DHT22;4732;49.340;10.886;2023-07-02T18:07:10;23.20;91.10
9385;DHT22;4732;49.340;10.886;2023-07-02T18:09:41;23.10;90.50
9385;DHT22;4732;49.340;10.886;2023-07-02T18:12:11;23.10;90.70
9385;DHT22;4732;49.340;10.886;2023-07-02T18:14:41;22.90;90.70
9385;DHT22;4732;49.340;10.886;2023-07-02T18:17:07;22.70;90.80
9385;DHT22;4732;49.340;10.886;2023-07-02T18:19:32;22.80;91.10
9385;DHT22;4732;49.340;10.886;2023-07-02T18:22:01;22.80;91.70
9385;DHT22;4732;49.340;10.886;2023-07-02T18:24:33;22.60;91.20
9385;DHT22;4732;49.340;10.886;2023-07-02T18:27:00;22.60;91.30
9385;DHT22;4732;49.340;10.886;2023-07-02T18:29:27;22.60;91.50
9385;DHT22;4732;49.340;10.886;2023-07-02T18:31:53;22.50;91.70
9385;DHT22;4732;49.340;10.886;2023-07-02T18:34:18;22.50;91.60
9385;DHT22;4732;49.340;10.886;2023-07-02T18:36:44;22.40;91.60
9385;DHT22;4732;49.340;10.886;2023-07-02T18:39:17;22.20;91.70
9385;DHT22;4732;49.340;10.886;2023-07-02T18:41:44;22.10;91.30
9385;DHT22;4732;49.340;10.886;2023-07-02T18:44:10;22.10;91.70